Time;durP1;ratioP1;P1;durP2;ratioP2;P2;SDS_P1;SDS_P2;PMS_P1;PMS_P2;Temp;Humidity;BMP_temperature;BMP_pressure;BME280_temperature;BME280_humidity;BME280_pressure;Samples;Min_cycle;Max_cycle;Signal;HPM_P1;HPM_P2
2022/06/04 00:00:53;;;;;;;0.32;0.32;;;18.90;99.90;;;;;;4974092;28;20062;-73
2022/06/04 00:03:20;;;;;;;1.00;0.80;;;18.90;99.90;;;;;;4975386;28;20061;-74
2022/06/04 00:05:57;;;;;;;0.55;0.55;;;18.90;99.90;;;;;;4974549;28;20058;-74
2022/06/04 00:08:23;;;;;;;0.68;0.68;;;19.00;99.90;;;;;;4975083;28;20026;-73
2022/06/04 00:16:25;;;;;;;0.50;0.50;;;18.90;99.90;;;;;;4974055;28;20122;-74
2022/06/04 00:18:51;;;;;;;0.75;0.52;;;19.00;99.90;;;;;;4974131;28;20033;-74
2022/06/04 00:21:17;;;;;;;0.77;0.57;;;19.00;99.90;;;;;;4975149;28;20027;-73
2022/06/04 00:23:43;;;;;;;0.65;0.60;;;19.00;99.90;;;;;;4973996;28;20018;-74
2022/06/04 00:26:13;;;;;;;0.20;0.20;;;19.00;99.90;;;;;;4973990;28;20101;-74
2022/06/04 00:28:39;;;;;;;1.08;0.98;;;18.90;99.90;;;;;;4974237;28;20070;-75
2022/06/04 00:31:05;;;;;;;0.40;0.40;;;18.90;99.90;;;;;;4973862;28;20042;-74
2022/06/04 00:33:31;;;;;;;0.28;0.28;;;19.00;99.90;;;;;;4974932;28;20035;-73
2022/06/04 00:35:59;;;;;;;4.47;1.02;;;18.90;99.90;;;;;;4973611;28;20097;-73
2022/06/04 00:38:28;;;;;;;0.95;0.70;;;18.90;99.90;;;;;;4974316;28;20486;-73
2022/06/04 00:41:02;;;;;;;1.55;0.82;;;18.90;99.90;;;;;;4973113;28;20023;-73
2022/06/04 00:43:29;;;;;;;0.43;0.43;;;18.80;99.90;;;;;;4974877;28;20509;-74
2022/06/04 00:46:39;;;;;;;0.10;0.10;;;18.80;99.90;;;;;;4974794;28;20125;-74
2022/06/04 00:49:06;;;;;;;0.75;0.75;;;18.70;99.90;;;;;;4954530;28;20042;-73
2022/06/04 00:51:33;;;;;;;0.60;0.60;;;18.40;99.90;;;;;;4974597;28;20027;-74
2022/06/04 00:54:00;;;;;;;0.63;0.60;;;18.50;99.90;;;;;;4974670;28;20053;-74
2022/06/04 00:57:06;;;;;;;0.50;0.50;;;18.50;99.90;;;;;;4973621;28;20033;-74
2022/06/04 01:00:03;;;;;;;5.07;1.33;;;18.50;99.90;;;;;;4973720;28;20034;-74
2022/06/04 01:02:58;;;;;;;2.42;1.77;;;18.60;99.90;;;;;;4973076;28;20526;-72
2022/06/04 01:05:57;;;;;;;0.50;0.50;;;18.70;99.90;;;;;;4966497;28;20114;-73
2022/06/04 01:09:04;;;;;;;1.05;0.85;;;18.90;99.90;;;;;;4968174;28;20030;-73
2022/06/04 01:12:20;;;;;;;0.25;0.25;;;18.90;99.90;;;;;;4949348;29;20035;-73
2022/06/04 01:15:07;;;;;;;2.30;0.93;;;18.70;99.90;;;;;;4956375;28;20400;-73
2022/06/04 01:18:01;;;;;;;0.75;0.50;;;18.60;99.90;;;;;;4957200;28;20058;-74
2022/06/04 01:20:31;;;;;;;0.10;0.10;;;18.70;99.90;;;;;;4973403;28;20042;-73
2022/06/04 01:23:17;;;;;;;1.20;0.93;;;18.70;99.90;;;;;;4940330;28;20029;-73
2022/06/04 01:26:20;;;;;;;0.70;0.70;;;18.60;99.90;;;;;;4937477;29;20042;-73
2022/06/04 01:28:57;;;;;;;0.35;0.35;;;18.40;99.90;;;;;;4953580;28;20054;-73
2022/06/04 01:31:31;;;;;;;0.20;0.20;;;18.60;99.90;;;;;;4938172;29;20043;-73
2022/06/04 01:34:02;;;;;;;0.28;0.28;;;18.60;99.90;;;;;;4937791;29;20117;-73
2022/06/04 01:36:46;;;;;;;0.75;0.65;;;18.70;99.90;;;;;;4937741;29;20175;-73
2022/06/04 01:39:19;;;;;;;1.50;0.90;;;18.70;99.90;;;;;;4936961;29;20043;-73
2022/06/04 01:41:57;;;;;;;0.60;0.60;;;18.70;99.90;;;;;;4967070;28;20062;-73
2022/06/04 01:44:34;;;;;;;0.93;0.93;;;18.60;99.90;;;;;;4956623;28;20022;-73
2022/06/04 01:47:04;;;;;;;2.35;1.35;;;18.60;99.90;;;;;;4956879;28;20026;-73
2022/06/04 01:49:52;;;;;;;0.82;0.63;;;18.40;99.90;;;;;;4973176;28;20518;-74
2022/06/04 01:52:28;;;;;;;0.38;0.38;;;18.30;99.90;;;;;;4956572;28;20027;-74
2022/06/04 01:55:21;;;;;;;0.80;0.80;;;18.40;99.90;;;;;;4956509;28;20027;-74
2022/06/04 01:57:49;;;;;;;1.00;0.85;;;18.40;99.90;;;;;;4956610;28;20468;-74
2022/06/04 02:00:26;;;;;;;0.10;0.10;;;18.40;99.90;;;;;;4972896;28;20041;-73
2022/06/04 02:03:20;;;;;;;1.27;1.17;;;18.40;99.90;;;;;;4956397;28;20027;-74
2022/06/04 02:06:09;;;;;;;0.25;0.25;;;18.50;99.90;;;;;;4973191;28;20042;-73
2022/06/04 02:08:52;;;;;;;1.38;1.13;;;18.50;99.90;;;;;;4956913;28;20061;-74
2022/06/04 02:11:24;;;;;;;0.52;0.52;;;18.40;99.90;;;;;;4957841;28;20395;-73
2022/06/04 02:13:56;;;;;;;1.58;1.48;;;18.40;99.90;;;;;;4955783;28;20071;-73
2022/06/04 02:16:46;;;;;;;0.85;0.82;;;18.40;99.90;;;;;;4939726;29;20039;-73
2022/06/04 02:19:12;;;;;;;2.58;0.90;;;18.10;99.90;;;;;;4952422;28;20035;-73
2022/06/04 02:21:38;;;;;;;0.45;0.45;;;18.10;99.90;;;;;;4953877;29;20542;-73
2022/06/04 02:24:06;;;;;;;2.53;0.95;;;17.90;99.90;;;;;;4953582;29;20815;-73
2022/06/04 02:26:32;;;;;;;1.25;1.15;;;17.90;99.90;;;;;;4953327;29;20082;-74
2022/06/04 02:28:59;;;;;;;5.28;1.17;;;17.90;99.90;;;;;;4935561;29;20031;-73
2022/06/04 02:31:49;;;;;;;0.52;0.52;;;18.00;99.90;;;;;;4953740;29;20034;-74
2022/06/04 02:34:37;;;;;;;1.10;0.93;;;18.10;99.90;;;;;;4937618;29;20043;-73
2022/06/04 02:37:06;;;;;;;1.90;1.65;;;18.20;99.90;;;;;;4953290;29;20121;-73
2022/06/04 02:39:44;;;;;;;0.30;0.30;;;18.30;99.90;;;;;;4952301;28;20502;-73
2022/06/04 02:42:30;;;;;;;1.42;1.33;;;18.10;99.90;;;;;;4953409;28;20125;-73
2022/06/04 02:45:24;;;;;;;1.63;1.52;;;18.10;99.90;;;;;;4953504;29;20027;-73
2022/06/04 02:48:10;;;;;;;0.40;0.40;;;17.90;99.90;;;;;;4938371;29;20039;-74
2022/06/04 02:51:00;;;;;;;1.38;1.27;;;17.70;99.90;;;;;;4952874;29;20038;-73
2022/06/04 02:53:30;;;;;;;0.65;0.65;;;17.10;99.90;;;;;;4941011;28;20358;-73
2022/06/04 02:56:03;;;;;;;0.95;0.85;;;17.00;99.90;;;;;;4952960;28;20446;-73
2022/06/04 02:58:31;;;;;;;2.00;0.75;;;17.00;99.90;;;;;;4935695;29;20031;-73
2022/06/04 03:00:58;;;;;;;0.52;0.52;;;17.00;99.90;;;;;;4952896;29;20046;-73
2022/06/04 03:03:25;;;;;;;1.52;1.42;;;17.00;99.90;;;;;;4952874;29;20042;-73
2022/06/04 03:06:40;;;;;;;2.45;1.45;;;17.10;99.90;;;;;;4935811;28;20027;-73
2022/06/04 03:09:15;;;;;;;0.73;0.73;;;17.20;99.90;;;;;;4946267;29;20050;-74
2022/06/04 03:11:45;;;;;;;0.10;0.10;;;17.10;99.90;;;;;;4936669;29;20043;-74
2022/06/04 03:14:13;;;;;;;1.45;1.35;;;17.00;99.90;;;;;;4952603;29;20035;-73
2022/06/04 03:16:42;;;;;;;0.68;0.68;;;17.10;99.90;;;;;;4954591;28;20038;-73
2022/06/04 03:19:10;;;;;;;0.52;0.52;;;17.10;99.90;;;;;;4970923;28;20107;-73
2022/06/04 03:21:38;;;;;;;0.60;0.47;;;17.20;99.90;;;;;;4972041;28;20027;-73
2022/06/04 03:24:06;;;;;;;1.02;0.98;;;17.20;99.90;;;;;;4954839;28;20112;-73
2022/06/04 03:26:32;;;;;;;1.17;0.50;;;17.30;99.90;;;;;;4971775;28;20034;-73
2022/06/04 03:28:58;;;;;;;3.40;1.05;;;17.30;99.90;;;;;;4953961;28;20511;-73
2022/06/04 03:31:26;;;;;;;1.88;1.77;;;17.10;99.90;;;;;;4971008;28;20038;-74
2022/06/04 03:33:54;;;;;;;0.77;0.60;;;17.00;99.90;;;;;;4971594;28;20397;-74
2022/06/04 03:36:21;;;;;;;1.25;1.15;;;17.00;99.90;;;;;;4954588;28;20499;-73
2022/06/04 03:38:48;;;;;;;0.32;0.32;;;16.90;99.90;;;;;;4953691;28;20110;-73
2022/06/04 03:41:14;;;;;;;0.55;0.55;;;16.90;99.90;;;;;;4971600;28;20034;-73
2022/06/04 03:43:41;;;;;;;0.65;0.65;;;16.90;99.90;;;;;;4971424;28;20377;-73
2022/06/04 03:46:07;;;;;;;0.68;0.65;;;16.90;99.90;;;;;;4954628;28;20368;-74
2022/06/04 03:48:34;;;;;;;0.88;0.50;;;17.10;99.90;;;;;;4971388;28;20038;-74
2022/06/04 03:51:01;;;;;;;2.05;1.55;;;17.10;99.90;;;;;;4971768;28;20030;-74
2022/06/04 03:53:27;;;;;;;0.82;0.80;;;17.10;99.90;;;;;;4971508;28;20109;-73
2022/06/04 03:55:53;;;;;;;1.50;1.13;;;17.00;99.90;;;;;;4971394;28;20121;-73
2022/06/04 03:58:19;;;;;;;1.27;1.17;;;17.10;99.90;;;;;;4971688;28;20125;-74
2022/06/04 04:00:45;;;;;;;2.17;0.88;;;17.10;99.90;;;;;;4970805;28;20062;-72
2022/06/04 04:03:14;;;;;;;0.22;0.22;;;17.10;99.90;;;;;;4971519;28;20034;-72
2022/06/04 04:05:46;;;;;;;0.30;0.30;;;17.20;99.90;;;;;;4954322;28;20098;-72
2022/06/04 04:08:13;;;;;;;0.93;0.57;;;17.10;99.90;;;;;;4971463;28;20067;-72
2022/06/04 04:10:41;;;;;;;1.25;1.05;;;17.00;99.90;;;;;;4970246;28;20027;-72
2022/06/04 04:13:08;;;;;;;0.35;0.35;;;17.10;99.90;;;;;;4954525;28;20069;-72
2022/06/04 04:15:34;;;;;;;1.25;0.98;;;17.10;99.90;;;;;;4944053;29;20525;-73
2022/06/04 04:18:00;;;;;;;1.75;1.48;;;17.20;99.90;;;;;;4952040;29;20050;-73
2022/06/04 04:20:31;;;;;;;1.40;1.30;;;17.20;99.90;;;;;;4951224;29;20043;-72
2022/06/04 04:22:59;;;;;;;1.00;0.83;;;17.30;99.90;;;;;;4952122;28;20024;-72
2022/06/04 04:25:28;;;;;;;1.55;1.27;;;17.40;99.90;;;;;;4951935;29;20027;-72
2022/06/04 04:27:56;;;;;;;1.90;1.17;;;17.60;99.90;;;;;;4976362;23;20054;-76
2022/06/04 04:30:28;;;;;;;0.60;0.60;;;17.70;99.90;;;;;;4989441;28;20050;-76
2022/06/04 04:32:55;;;;;;;0.55;0.55;;;17.80;99.90;;;;;;4971700;28;20403;-76
2022/06/04 04:35:28;;;;;;;0.70;0.70;;;17.90;99.90;;;;;;4953784;28;20496;-76
2022/06/04 04:37:55;;;;;;;1.13;0.93;;;18.00;99.90;;;;;;4954131;28;20110;-76
2022/06/04 04:40:24;;;;;;;2.40;0.93;;;17.80;99.90;;;;;;4970554;28;20031;-76
2022/06/04 04:42:51;;;;;;;0.50;0.50;;;18.00;99.90;;;;;;4972126;28;20031;-77
2022/06/04 04:45:19;;;;;;;0.75;0.65;;;18.10;99.90;;;;;;4974321;28;20035;-77
2022/06/04 04:47:47;;;;;;;2.35;1.67;;;18.20;99.90;;;;;;4974350;28;20043;-76
2022/06/04 04:50:28;;;;;;;1.48;1.38;;;18.30;99.90;;;;;;4956528;28;20037;-77
2022/06/04 04:52:55;;;;;;;0.80;0.80;;;18.40;99.90;;;;;;4973536;28;20039;-76
2022/06/04 04:55:21;;;;;;;2.72;0.82;;;18.60;99.90;;;;;;4973301;28;20043;-76
2022/06/04 04:57:47;;;;;;;0.90;0.90;;;18.50;99.90;;;;;;4974046;28;20035;-77
2022/06/04 05:00:15;;;;;;;4.32;1.95;;;18.60;99.90;;;;;;4972481;28;20022;-76
2022/06/04 05:02:42;;;;;;;0.68;0.50;;;18.70;99.90;;;;;;4957110;28;20027;-77
2022/06/04 05:05:08;;;;;;;0.30;0.30;;;18.80;99.90;;;;;;4973081;28;20118;-77
2022/06/04 05:07:34;;;;;;;0.57;0.57;;;18.90;99.90;;;;;;4972997;28;20033;-77
2022/06/04 05:10:00;;;;;;;0.85;0.85;;;19.10;99.90;;;;;;4972337;28;20027;-77
2022/06/04 05:12:26;;;;;;;0.88;0.88;;;19.20;99.90;;;;;;4974069;28;20113;-77
2022/06/04 05:14:52;;;;;;;1.10;1.00;;;19.20;99.90;;;;;;4972828;28;20390;-77
2022/06/04 05:17:18;;;;;;;1.55;0.93;;;19.10;99.90;;;;;;4956878;28;20035;-77
2022/06/04 05:19:44;;;;;;;0.45;0.45;;;19.30;99.90;;;;;;4971806;28;20042;-77
2022/06/04 05:22:10;;;;;;;1.35;1.25;;;19.30;99.90;;;;;;4956801;28;20534;-78
2022/06/04 05:24:36;;;;;;;0.52;0.52;;;19.40;99.90;;;;;;4973858;28;20109;-77
2022/06/04 05:27:04;;;;;;;0.68;0.68;;;19.60;99.90;;;;;;4972021;28;20027;-78
2022/06/04 05:29:31;;;;;;;2.28;1.13;;;19.60;99.90;;;;;;4955718;28;20066;-78
2022/06/04 05:31:58;;;;;;;1.92;0.80;;;19.60;99.90;;;;;;4972329;28;20113;-78
2022/06/04 05:34:25;;;;;;;1.38;0.82;;;19.70;99.90;;;;;;4956367;28;20030;-77
2022/06/04 05:36:55;;;;;;;1.67;1.58;;;19.70;99.90;;;;;;4969489;28;20093;-77
2022/06/04 05:39:22;;;;;;;0.75;0.75;;;19.80;99.90;;;;;;4971825;28;20031;-75
2022/06/04 05:41:49;;;;;;;2.28;2.08;;;19.70;99.90;;;;;;4955876;28;20023;-74
2022/06/04 05:44:15;;;;;;;4.15;1.33;;;19.90;99.90;;;;;;4972079;28;20113;-77
2022/06/04 05:46:42;;;;;;;1.35;1.00;;;19.90;99.90;;;;;;4972038;28;20031;-77
2022/06/04 05:49:15;;;;;;;0.90;0.90;;;20.00;99.90;;;;;;4970857;28;20101;-77
2022/06/04 05:51:43;;;;;;;0.52;0.52;;;20.00;99.90;;;;;;4970734;28;20056;-76
2022/06/04 05:54:09;;;;;;;2.92;1.35;;;19.90;99.90;;;;;;4969750;28;20027;-77
2022/06/04 05:56:40;;;;;;;2.45;1.63;;;19.90;99.90;;;;;;4971606;28;20018;-76
2022/06/04 05:59:11;;;;;;;1.83;0.80;;;19.70;99.90;;;;;;4969484;28;20081;-75
2022/06/04 06:01:39;;;;;;;5.38;2.10;;;19.80;99.90;;;;;;4978393;28;20751;-75
2022/06/04 06:04:10;;;;;;;0.65;0.65;;;19.50;99.90;;;;;;4990500;28;20038;-75
2022/06/04 06:06:41;;;;;;;4.50;1.52;;;19.80;99.90;;;;;;4974951;28;20033;-75
2022/06/04 06:09:09;;;;;;;3.92;1.63;;;19.90;99.90;;;;;;4990514;28;20026;-74
2022/06/04 06:11:36;;;;;;;1.05;0.90;;;19.90;99.90;;;;;;4975113;28;20037;-77
2022/06/04 06:14:02;;;;;;;4.15;2.58;;;19.80;99.90;;;;;;4991316;28;20573;-74
2022/06/04 06:16:31;;;;;;;0.63;0.63;;;19.70;99.90;;;;;;4991567;28;20041;-75
2022/06/04 06:18:58;;;;;;;1.85;1.15;;;19.70;99.90;;;;;;4990299;28;20113;-76
2022/06/04 06:21:29;;;;;;;1.77;1.45;;;19.70;99.90;;;;;;4974825;28;20562;-74
2022/06/04 06:23:57;;;;;;;1.65;1.50;;;19.90;99.90;;;;;;4974640;28;20482;-74
2022/06/04 06:26:28;;;;;;;0.38;0.38;;;19.70;99.90;;;;;;4991786;28;20442;-75
2022/06/04 06:28:55;;;;;;;0.95;0.93;;;19.40;99.90;;;;;;4991219;28;20049;-74
2022/06/04 06:31:26;;;;;;;1.92;1.30;;;19.40;99.90;;;;;;4990680;28;20383;-75
2022/06/04 06:33:53;;;;;;;3.08;1.75;;;19.50;99.90;;;;;;4991175;28;20030;-76
2022/06/04 06:36:21;;;;;;;2.25;1.60;;;19.50;99.90;;;;;;4990909;28;20034;-71
2022/06/04 06:38:47;;;;;;;1.75;1.00;;;19.60;99.90;;;;;;4990851;28;20101;-76
2022/06/04 06:41:16;;;;;;;1.92;1.63;;;19.80;99.90;;;;;;4980489;28;20037;-75
2022/06/04 06:43:50;;;;;;;4.53;2.80;;;19.60;99.90;;;;;;4991660;28;20022;-76
2022/06/04 06:46:31;;;;;;;1.42;0.52;;;19.80;99.90;;;;;;4991469;28;20019;-73
2022/06/04 06:49:04;;;;;;;;;;;20.10;99.90;;;;;;4990131;28;20117;-72
2022/06/04 06:51:39;;;;;;;1.08;1.05;;;20.10;99.90;;;;;;4991925;28;19959;-74
2022/06/04 06:54:06;;;;;;;0.70;0.70;;;20.20;99.90;;;;;;4991509;28;20041;-75
2022/06/04 06:56:35;;;;;;;1.80;0.95;;;20.30;99.90;;;;;;4990647;28;20498;-74
2022/06/04 06:59:02;;;;;;;0.77;0.50;;;20.40;99.90;;;;;;4988731;28;20052;-75
2022/06/04 07:01:28;;;;;;;1.02;0.60;;;20.50;99.90;;;;;;4995604;28;20018;-75
2022/06/04 07:03:56;;;;;;;0.35;0.25;;;20.70;99.90;;;;;;4989757;28;20077;-75
2022/06/04 07:06:40;;;;;;;0.60;0.60;;;20.70;99.90;;;;;;4973507;28;20050;-76
2022/06/04 07:09:23;;;;;;;1.77;1.60;;;20.80;99.90;;;;;;4969366;28;20089;-74
2022/06/04 07:11:50;;;;;;;0.38;0.38;;;20.60;99.90;;;;;;4970565;28;20407;-75
2022/06/04 07:14:17;;;;;;;1.80;0.98;;;20.60;99.90;;;;;;4970077;28;20391;-74
2022/06/04 07:16:43;;;;;;;0.50;0.50;;;20.80;99.90;;;;;;4954306;28;20114;-74
2022/06/04 07:19:11;;;;;;;1.70;0.90;;;20.50;99.90;;;;;;4969673;28;20046;-76
2022/06/04 07:21:38;;;;;;;1.33;1.17;;;20.60;99.90;;;;;;4972020;28;20022;-78
2022/06/04 07:24:04;;;;;;;0.75;0.70;;;20.80;99.90;;;;;;4954314;28;20034;-77
2022/06/04 07:26:30;;;;;;;0.90;0.82;;;20.90;99.90;;;;;;4970386;28;20026;-76
2022/06/04 07:28:56;;;;;;;0.43;0.43;;;20.90;99.90;;;;;;4953480;28;20030;-77
2022/06/04 07:31:23;;;;;;;2.22;1.35;;;21.20;99.90;;;;;;4973826;28;20045;-78
2022/06/04 07:33:55;;;;;;;0.43;0.43;;;21.30;99.90;;;;;;4989990;28;20034;-75
2022/06/04 07:36:25;;;;;;;2.25;2.05;;;21.30;99.90;;;;;;4991070;28;20077;-75
2022/06/04 07:38:51;;;;;;;1.10;0.82;;;21.30;99.90;;;;;;4990269;28;20887;-76
2022/06/04 07:41:26;;;;;;;2.60;0.95;;;21.40;99.90;;;;;;4990969;28;20026;-76
2022/06/04 07:43:52;;;;;;;1.38;1.27;;;21.50;99.90;;;;;;4991122;28;20081;-76
2022/06/04 07:46:20;;;;;;;0.70;0.70;;;21.60;99.90;;;;;;4994786;28;20082;-76
2022/06/04 07:48:46;;;;;;;1.52;1.42;;;21.70;99.90;;;;;;4991354;28;20030;-76
2022/06/04 07:51:14;;;;;;;3.50;1.48;;;21.40;99.90;;;;;;4989510;28;20490;-76
2022/06/04 07:53:40;;;;;;;1.13;0.82;;;21.40;99.90;;;;;;4990228;28;20133;-75
2022/06/04 07:56:09;;;;;;;2.95;0.98;;;21.30;99.90;;;;;;4989659;28;20046;-76
2022/06/04 07:58:36;;;;;;;2.20;1.27;;;21.30;99.90;;;;;;4989852;28;20027;-76
2022/06/04 08:01:04;;;;;;;0.60;0.60;;;21.50;99.90;;;;;;4989726;28;20497;-77
2022/06/04 08:03:35;;;;;;;1.00;0.90;;;21.40;99.90;;;;;;4973524;28;20096;-75
2022/06/04 08:06:02;;;;;;;0.63;0.63;;;21.20;99.90;;;;;;4989799;28;20121;-75
2022/06/04 08:08:29;;;;;;;1.88;1.17;;;21.50;99.90;;;;;;4988820;28;20026;-75
2022/06/04 08:10:57;;;;;;;0.85;0.82;;;21.60;99.90;;;;;;4990673;28;20047;-76
2022/06/04 08:13:25;;;;;;;4.60;2.67;;;21.60;99.90;;;;;;4989908;28;20130;-75
2022/06/04 08:15:58;;;;;;;1.05;0.98;;;21.40;99.90;;;;;;4989585;28;20038;-74
2022/06/04 08:18:25;;;;;;;2.80;2.53;;;21.70;99.90;;;;;;4992228;28;20031;-73
2022/06/04 08:20:52;;;;;;;0.80;0.80;;;22.00;99.90;;;;;;4993857;28;20026;-74
2022/06/04 08:23:22;;;;;;;0.60;0.60;;;21.90;99.90;;;;;;4996172;28;20027;-79
2022/06/04 08:25:51;;;;;;;3.67;1.27;;;22.40;99.90;;;;;;4993883;28;20023;-75
2022/06/04 08:28:18;;;;;;;3.45;1.77;;;22.60;99.90;;;;;;4992933;28;20034;-75
2022/06/04 08:30:45;;;;;;;0.52;0.52;;;22.40;99.90;;;;;;4992051;28;20061;-73
2022/06/04 08:33:12;;;;;;;1.00;0.98;;;22.50;99.90;;;;;;4993310;28;20492;-73
2022/06/04 08:35:38;;;;;;;1.23;0.57;;;22.80;99.90;;;;;;4993240;28;20034;-73
2022/06/04 08:38:04;;;;;;;1.05;0.98;;;22.60;99.90;;;;;;4994413;28;20030;-73
2022/06/04 08:40:47;;;;;;;1.13;0.93;;;22.70;99.90;;;;;;4993264;28;20041;-71
2022/06/04 08:43:43;;;;;;;2.20;1.23;;;22.90;99.90;;;;;;4993081;28;20034;-72
2022/06/04 08:46:29;;;;;;;2.42;1.50;;;22.70;99.90;;;;;;4994203;28;20034;-72
2022/06/04 08:48:57;;;;;;;0.95;0.73;;;23.10;99.90;;;;;;4992046;28;20618;-76
2022/06/04 08:51:28;;;;;;;0.52;0.52;;;23.20;99.90;;;;;;4995472;28;20026;-72
2022/06/04 08:53:55;;;;;;;;;;;23.40;99.90;;;;;;4995629;28;20711;-72
2022/06/04 08:59:45;;;;;;;1.20;0.70;;;23.60;99.90;;;;;;4993123;28;20026;-73
2022/06/04 09:02:19;;;;;;;0.98;0.57;;;23.60;99.90;;;;;;4992762;28;20022;-72
2022/06/04 09:05:20;;;;;;;0.17;0.17;;;23.40;99.90;;;;;;4979291;28;20395;-71
2022/06/04 09:07:54;;;;;;;0.00;0.00;;;23.20;99.90;;;;;;4958652;28;20053;-73
2022/06/04 09:10:27;;;;;;;0.35;0.30;;;23.40;99.90;;;;;;4959972;28;20035;-72
2022/06/04 09:13:23;;;;;;;2.20;2.00;;;23.00;99.90;;;;;;4974995;28;20038;-73
2022/06/04 09:15:53;;;;;;;0.40;0.40;;;23.10;99.90;;;;;;4993415;28;20543;-73
2022/06/04 09:18:33;;;;;;;0.93;0.60;;;23.20;99.90;;;;;;4976397;28;20038;-73
2022/06/04 09:21:02;;;;;;;0.65;0.55;;;23.30;99.90;;;;;;4977268;28;20030;-73
2022/06/04 09:23:34;;;;;;;3.90;2.55;;;23.00;99.90;;;;;;4976254;28;20390;-73
2022/06/04 09:26:12;;;;;;;1.23;0.90;;;22.90;99.90;;;;;;4993516;28;20065;-73
2022/06/04 09:29:16;;;;;;;0.30;0.22;;;23.00;99.90;;;;;;4991085;28;20042;-73
2022/06/04 09:32:14;;;;;;;1.52;0.98;;;23.10;99.90;;;;;;4993504;28;20054;-74
2022/06/04 09:34:47;;;;;;;0.50;0.50;;;22.90;99.90;;;;;;4978451;28;20034;-73
2022/06/04 09:37:13;;;;;;;0.60;0.57;;;22.70;99.90;;;;;;4975811;28;20561;-70
2022/06/04 09:39:47;;;;;;;2.30;1.45;;;22.40;99.90;;;;;;4991781;28;20532;-70
2022/06/04 09:42:13;;;;;;;3.35;1.27;;;22.20;99.90;;;;;;4975474;28;20113;-70
2022/06/04 09:44:58;;;;;;;0.52;0.40;;;22.20;99.90;;;;;;4991572;28;20030;-70
2022/06/04 09:47:44;;;;;;;0.32;0.15;;;22.40;99.90;;;;;;4993386;28;20037;-70
2022/06/04 09:50:22;;;;;;;0.52;0.38;;;22.50;99.90;;;;;;4974866;28;20129;-74
2022/06/04 09:53:02;;;;;;;0.03;0.03;;;22.50;99.90;;;;;;4993388;28;20034;-69
2022/06/04 09:55:32;;;;;;;0.90;0.60;;;22.60;99.90;;;;;;4992889;28;20099;-74
2022/06/04 09:58:20;;;;;;;0.40;0.30;;;22.50;99.90;;;;;;4981698;28;20336;-79
2022/06/04 10:01:14;;;;;;;0.75;0.60;;;22.40;99.90;;;;;;4992231;28;20041;-76
2022/06/04 10:03:41;;;;;;;0.47;0.47;;;22.20;99.90;;;;;;4991446;28;20026;-73
2022/06/04 10:06:17;;;;;;;0.47;0.47;;;22.20;99.90;;;;;;4992404;28;20106;-72
2022/06/04 10:11:54;;;;;;;0.55;0.32;;;22.20;99.90;;;;;;4991578;28;20066;-72
2022/06/04 10:14:38;;;;;;;0.20;0.20;;;22.20;99.90;;;;;;4991331;28;20427;-75
2022/06/04 10:17:32;;;;;;;1.02;0.38;;;22.40;99.90;;;;;;4991134;28;20042;-77
2022/06/04 10:19:58;;;;;;;0.15;0.05;;;22.60;99.90;;;;;;4990851;28;20038;-77
2022/06/04 10:22:24;;;;;;;0.10;0.10;;;22.80;99.90;;;;;;4992336;28;20030;-81
2022/06/04 10:24:56;;;;;;;0.77;0.70;;;22.80;99.90;;;;;;4974705;28;20057;-74
2022/06/04 10:30:27;;;;;;;0.55;0.50;;;22.40;99.90;;;;;;4982905;28;20483;-74
2022/06/04 10:33:14;;;;;;;0.75;0.75;;;22.40;99.90;;;;;;4971729;28;20031;-65
2022/06/04 10:36:01;;;;;;;0.47;0.47;;;22.50;99.90;;;;;;4971619;28;20027;-66
2022/06/04 10:38:47;;;;;;;7.03;1.50;;;22.80;99.90;;;;;;4971925;28;20138;-67
2022/06/04 10:41:26;;;;;;;0.05;0.05;;;22.70;99.90;;;;;;4972130;28;20054;-70
2022/06/04 10:44:07;;;;;;;0.45;0.38;;;23.00;99.90;;;;;;4972445;28;20027;-68
2022/06/04 10:46:52;;;;;;;;;;;23.20;99.90;;;;;;4972906;28;20050;-67
2022/06/04 10:49:37;;;;;;;0.10;0.10;;;23.00;99.90;;;;;;4986493;28;19917;-68
2022/06/04 10:52:35;;;;;;;1.90;0.95;;;23.30;99.90;;;;;;4972684;28;20031;-68
2022/06/04 10:55:31;;;;;;;0.10;0.10;;;23.40;99.90;;;;;;4972577;28;20023;-67
2022/06/04 10:58:26;;;;;;;1.65;0.65;;;23.00;99.90;;;;;;4972272;28;20038;-68
2022/06/04 11:01:05;;;;;;;0.52;0.43;;;23.10;99.90;;;;;;4986476;28;20038;-68
2022/06/04 11:04:17;;;;;;;0.47;0.35;;;23.40;99.90;;;;;;4990656;28;20112;-68
2022/06/04 11:06:56;;;;;;;0.10;0.10;;;23.50;99.90;;;;;;4991599;28;20034;-67
2022/06/04 11:09:38;;;;;;;1.13;0.45;;;23.00;99.90;;;;;;4989066;28;20120;-67
2022/06/04 11:12:45;;;;;;;0.22;0.22;;;22.90;99.90;;;;;;4990013;28;20046;-68
2022/06/04 11:15:40;;;;;;;0.20;0.20;;;23.10;99.90;;;;;;4991136;28;20101;-70
2022/06/04 11:18:13;;;;;;;0.60;0.40;;;23.50;99.90;;;;;;4991524;28;20037;-67
2022/06/04 11:21:03;;;;;;;0.68;0.65;;;23.90;99.90;;;;;;4990544;28;20022;-68
2022/06/04 11:23:42;;;;;;;2.20;1.20;;;23.90;99.90;;;;;;4991406;28;20050;-68
2022/06/04 11:26:37;;;;;;;0.20;0.20;;;24.00;99.90;;;;;;4991563;28;20121;-67
2022/06/04 11:29:06;;;;;;;2.63;0.68;;;23.50;99.90;;;;;;4990384;28;20557;-67
2022/06/04 11:32:08;;;;;;;2.55;0.95;;;23.60;99.90;;;;;;5005999;28;20040;-67
2022/06/04 11:35:11;;;;;;;10.60;2.63;;;23.90;99.90;;;;;;5005883;28;20034;-67
2022/06/04 11:38:14;;;;;;;0.08;0.08;;;24.50;99.90;;;;;;4991135;28;20529;-66
2022/06/04 11:41:09;;;;;;;2.17;0.90;;;24.60;99.90;;;;;;4985164;28;20034;-68
2022/06/04 11:44:01;;;;;;;0.30;0.30;;;25.10;99.90;;;;;;4959128;28;20046;-68
2022/06/04 11:46:38;;;;;;;0.60;0.55;;;25.50;99.90;;;;;;4988956;28;20030;-66
2022/06/04 11:49:35;;;;;;;0.57;0.57;;;25.70;99.90;;;;;;4989924;28;20045;-67
2022/06/04 11:52:19;;;;;;;0.73;0.57;;;24.90;99.90;;;;;;5006838;28;20058;-68
2022/06/04 11:55:20;;;;;;;7.38;1.45;;;25.60;99.90;;;;;;4994551;28;20026;-68
2022/06/04 11:58:15;;;;;;;0.22;0.22;;;25.10;99.90;;;;;;4993887;28;20042;-68
2022/06/04 12:00:45;;;;;;;1.08;0.95;;;25.70;99.90;;;;;;4994026;28;20038;-68
2022/06/04 12:03:40;;;;;;;1.90;1.33;;;25.80;99.90;;;;;;5008933;28;20034;-68
2022/06/04 12:06:22;;;;;;;0.30;0.30;;;25.50;99.90;;;;;;4994604;28;20042;-68
2022/06/04 12:09:12;;;;;;;0.45;0.45;;;25.30;99.90;;;;;;4993498;28;20034;-69
2022/06/04 12:12:07;;;;;;;1.30;0.85;;;25.40;99.90;;;;;;4992975;28;20386;-68
2022/06/04 12:14:40;;;;;;;0.55;0.52;;;25.30;99.90;;;;;;5006998;28;20030;-68
2022/06/04 12:17:21;;;;;;;2.38;1.70;;;25.90;99.90;;;;;;4994558;28;20084;-68
2022/06/04 12:25:46;;;;;;;0.98;0.85;;;26.10;99.90;;;;;;5006386;28;20036;-70
2022/06/04 12:28:41;;;;;;;3.75;1.48;;;26.70;99.90;;;;;;4993817;28;20058;-69
2022/06/04 12:31:08;;;;;;;1.50;0.90;;;26.30;99.90;;;;;;5009082;28;20026;-69
2022/06/04 12:33:51;;;;;;;0.73;0.65;;;27.10;99.90;;;;;;4993808;28;20034;-74
2022/06/04 12:36:36;;;;;;;0.95;0.77;;;27.20;99.90;;;;;;5008791;28;20165;-73
2022/06/04 12:39:29;;;;;;;0.68;0.65;;;27.00;99.90;;;;;;4993124;28;20030;-73
2022/06/04 12:41:59;;;;;;;3.00;1.30;;;27.30;99.90;;;;;;4993353;28;20030;-73
2022/06/04 12:44:34;;;;;;;1.65;0.85;;;27.50;99.90;;;;;;4993610;28;20026;-72
2022/06/04 12:47:35;;;;;;;1.35;1.25;;;26.90;99.90;;;;;;4992949;28;20030;-73
2022/06/04 12:50:16;;;;;;;0.28;0.28;;;27.30;99.90;;;;;;4966875;28;20038;-71
2022/06/04 12:52:46;;;;;;;2.20;0.93;;;27.50;99.90;;;;;;4993804;28;20069;-74
2022/06/04 12:55:45;;;;;;;0.50;0.10;;;27.80;99.90;;;;;;4991875;28;20035;-74
2022/06/04 12:58:49;;;;;;;1.30;1.13;;;27.10;99.20;;;;;;5006820;28;20035;-75
2022/06/04 13:01:20;;;;;;;4.93;0.55;;;27.00;99.90;;;;;;4993293;28;20035;-74
2022/06/04 13:04:10;;;;;;;1.90;0.73;;;27.70;99.10;;;;;;4991441;28;20042;-73
2022/06/04 13:07:12;;;;;;;0.40;0.35;;;28.00;98.30;;;;;;4993412;28;20030;-72
2022/06/04 13:09:47;;;;;;;0.30;0.30;;;27.60;96.50;;;;;;4990348;28;20077;-74
2022/06/04 13:12:42;;;;;;;1.02;0.47;;;27.60;97.10;;;;;;4991678;28;20066;-72
2022/06/04 13:15:40;;;;;;;0.20;0.20;;;27.30;97.80;;;;;;4992113;28;20050;-74
2022/06/04 13:18:19;;;;;;;1.65;0.57;;;28.10;97.90;;;;;;4991653;28;20045;-73
2022/06/04 13:20:57;;;;;;;0.22;0.22;;;28.90;95.70;;;;;;4991538;28;20030;-74
2022/06/04 13:23:29;;;;;;;1.15;0.50;;;29.30;94.00;;;;;;4993315;28;20018;-76
2022/06/04 13:26:26;;;;;;;0.85;0.45;;;29.40;93.00;;;;;;4992852;28;20647;-75
2022/06/04 13:28:52;;;;;;;0.73;0.45;;;28.50;94.40;;;;;;4991942;28;20038;-77
2022/06/04 13:31:33;;;;;;;0.10;0.10;;;29.50;93.70;;;;;;4993024;28;20106;-76
2022/06/04 13:34:13;;;;;;;0.20;0.20;;;29.40;92.80;;;;;;4992921;28;20402;-75
2022/06/04 13:36:39;;;;;;;3.67;0.98;;;30.20;92.40;;;;;;4993212;28;20137;-76
2022/06/04 13:39:14;;;;;;;0.20;0.20;;;31.30;91.00;;;;;;4990053;28;20137;-75
2022/06/04 13:44:41;;;;;;;0.00;0.00;;;29.90;90.30;;;;;;4991759;28;20419;-74
2022/06/04 13:47:10;;;;;;;0.17;0.17;;;29.40;91.10;;;;;;4991320;28;20053;-74
2022/06/04 13:49:36;;;;;;;0.40;0.35;;;28.90;91.40;;;;;;4990951;28;20042;-74
2022/06/04 13:52:12;;;;;;;0.20;0.20;;;28.70;92.00;;;;;;4993148;28;20030;-73
2022/06/04 13:54:53;;;;;;;0.03;0.03;;;29.00;92.40;;;;;;4993162;28;20117;-73